createdAt,value
2019-05-29T00:00:12.971Z,97794.55
2019-05-29T00:02:41.060Z,97796.42
2019-05-29T00:05:10.242Z,97796.06
2019-05-29T00:07:39.127Z,97794.31
2019-05-29T00:10:08.959Z,97792.06
2019-05-29T00:12:37.654Z,97787.97
2019-05-29T00:15:06.348Z,97784.99
2019-05-29T00:17:34.628Z,97787.52
2019-05-29T00:20:02.953Z,97792.02
2019-05-29T00:22:31.266Z,97794.67
2019-05-29T00:24:59.577Z,97782.41
2019-05-29T00:27:27.864Z,97794.25
2019-05-29T00:29:56.254Z,97783.02
2019-05-29T00:32:24.571Z,97783.61
2019-05-29T00:34:53.278Z,97786.66
2019-05-29T00:37:21.965Z,97788.97
2019-05-29T00:39:50.659Z,97785.98
2019-05-29T00:42:18.992Z,97790.76
2019-05-29T00:44:47.721Z,97790.41
2019-05-29T00:47:16.127Z,97789.64
2019-05-29T00:49:44.418Z,97797.21
2019-05-29T00:52:14.186Z,97800.25
2019-05-29T00:54:43.712Z,97801.63
2019-05-29T00:57:12.920Z,97799.06
2019-05-29T00:59:41.545Z,97799.31
2019-05-29T01:02:11.797Z,97810.89
2019-05-29T01:04:40.712Z,97807.17
2019-05-29T01:07:10.172Z,97804.07
2019-05-29T01:09:39.014Z,97798.75
2019-05-29T01:12:07.601Z,97797.72
2019-05-29T01:14:49.216Z,97800.46
2019-05-29T01:17:06.099Z,97803.80
2019-05-29T01:19:35.102Z,97807.88
2019-05-29T01:22:03.522Z,97806.53
2019-05-29T01:24:31.925Z,97806.13
2019-05-29T01:27:00.355Z,97809.59
2019-05-29T01:29:29.039Z,97808.53
2019-05-29T01:31:57.345Z,97807.59
2019-05-29T01:34:25.668Z,97804.16
2019-05-29T01:36:53.994Z,97810.15
2019-05-29T01:39:23.407Z,97821.98
2019-05-29T01:41:52.380Z,97824.65
2019-05-29T01:44:21.444Z,97815.05
2019-05-29T01:46:49.972Z,97815.64
2019-05-29T01:49:19.506Z,97813.80
2019-05-29T01:51:47.967Z,97818.03
2019-05-29T01:54:17.482Z,97815.55
2019-05-29T01:56:45.972Z,97819.93
2019-05-29T01:59:15.619Z,97823.98
2019-05-29T02:01:44.259Z,97825.98
2019-05-29T02:04:12.565Z,97826.77
2019-05-29T02:06:40.877Z,97829.01
2019-05-29T02:09:09.186Z,97834.10
2019-05-29T02:11:37.877Z,97832.00
2019-05-29T02:14:06.251Z,97833.14
2019-05-29T02:16:34.848Z,97834.57
2019-05-29T02:19:03.532Z,97831.95
2019-05-29T02:21:31.908Z,97831.88
2019-05-29T02:24:00.608Z,97838.52
2019-05-29T02:26:28.979Z,97832.95
2019-05-29T02:28:57.302Z,97838.23
2019-05-29T02:31:27.032Z,97837.78
2019-05-29T02:33:55.981Z,97838.73
2019-05-29T02:36:26.616Z,97842.27
2019-05-29T02:38:55.003Z,97846.81
2019-05-29T02:41:24.308Z,97851.23
2019-05-29T02:43:53.408Z,97857.32
2019-05-29T02:46:23.834Z,97861.20
2019-05-29T02:48:53.027Z,97854.59
2019-05-29T02:51:22.082Z,97859.61
2019-05-29T02:53:50.679Z,97855.22
2019-05-29T02:56:20.423Z,97860.77
2019-05-29T02:58:49.016Z,97862.84
2019-05-29T03:01:17.306Z,97864.42
2019-05-29T03:03:45.975Z,97859.16
2019-05-29T03:06:14.678Z,97863.16
2019-05-29T03:08:43.269Z,97867.72
2019-05-29T03:11:11.965Z,97870.48
2019-05-29T03:13:40.233Z,97874.23
2019-05-29T03:16:11.978Z,97878.15
2019-05-29T03:18:38.747Z,97877.55
2019-05-29T03:21:07.064Z,97875.36
2019-05-29T03:23:36.146Z,97874.41
2019-05-29T03:26:05.212Z,97879.19
2019-05-29T03:28:35.110Z,97877.29
2019-05-29T03:31:03.795Z,97882.31
2019-05-29T03:33:43.793Z,97882.91
2019-05-29T03:36:02.623Z,97893.90
2019-05-29T03:38:32.681Z,97892.97
2019-05-29T03:41:01.353Z,97899.41
2019-05-29T03:43:31.113Z,97902.89
2019-05-29T03:45:59.686Z,97901.86
2019-05-29T03:48:29.635Z,97908.58
2019-05-29T03:50:58.656Z,97909.12
2019-05-29T03:53:27.166Z,97910.34
2019-05-29T03:55:55.656Z,97909.20
2019-05-29T03:58:24.301Z,97917.91
2019-05-29T04:00:52.994Z,97924.33
2019-05-29T04:03:21.302Z,97928.15
2019-05-29T04:05:49.961Z,97929.06
2019-05-29T04:08:18.251Z,97938.53
2019-05-29T04:10:46.577Z,97936.03
2019-05-29T04:13:14.945Z,97944.88
2019-05-29T04:15:43.400Z,97938.67
2019-05-29T04:18:12.071Z,97945.25
2019-05-29T04:20:40.760Z,97954.38
2019-05-29T04:23:09.133Z,97951.74
2019-05-29T04:25:42.279Z,97951.54
2019-05-29T04:28:08.930Z,97952.02
2019-05-29T04:30:39.079Z,97958.52
2019-05-29T04:33:07.417Z,97963.98
2019-05-29T04:35:36.822Z,97961.70
2019-05-29T04:38:05.591Z,97967.20
2019-05-29T04:40:35.052Z,97974.47
2019-05-29T04:43:04.492Z,97975.54
2019-05-29T04:45:33.490Z,97974.91
2019-05-29T04:48:02.864Z,97974.66
2019-05-29T04:50:31.923Z,97979.64
2019-05-29T04:53:01.288Z,97986.11
2019-05-29T04:55:30.698Z,97993.97
2019-05-29T04:57:59.392Z,97988.01
2019-05-29T05:00:28.926Z,97992.74
2019-05-29T05:02:57.378Z,97992.45
2019-05-29T05:05:25.951Z,97993.79
2019-05-29T05:07:54.560Z,97996.84
2019-05-29T05:10:41.211Z,98001.31
2019-05-29T05:13:09.938Z,98002.95
2019-05-29T05:15:39.972Z,98012.31
2019-05-29T05:18:09.080Z,98016.72
2019-05-29T05:20:38.381Z,98017.42
2019-05-29T05:23:06.818Z,98020.16
2019-05-29T05:25:36.345Z,98014.17
2019-05-29T05:28:06.189Z,98027.03
2019-05-29T05:30:34.567Z,98032.23
2019-05-29T05:33:02.999Z,98029.27
2019-05-29T05:35:32.585Z,98030.30
2019-05-29T05:38:01.022Z,98030.80
2019-05-29T05:40:30.651Z,98041.19
2019-05-29T05:42:59.459Z,98040.23
2019-05-29T05:45:27.785Z,98039.94
2019-05-29T05:47:58.022Z,98044.44
2019-05-29T05:50:26.413Z,98042.00
2019-05-29T05:52:54.722Z,98055.02
2019-05-29T05:55:23.403Z,98054.20
2019-05-29T05:57:52.092Z,98058.20
2019-05-29T06:00:35.886Z,98064.06
2019-05-29T06:03:05.365Z,98068.30
2019-05-29T06:05:34.017Z,98067.78
2019-05-29T06:08:02.634Z,98072.27
2019-05-29T06:10:32.013Z,98072.02
2019-05-29T06:13:00.521Z,98064.72
2019-05-29T06:15:29.106Z,98071.78
2019-05-29T06:18:19.493Z,98072.92
2019-05-29T06:20:27.813Z,98075.69
2019-05-29T06:22:56.502Z,98079.14
2019-05-29T06:25:26.043Z,98084.45
2019-05-29T06:27:54.510Z,98086.78
2019-05-29T06:30:23.438Z,98090.98
2019-05-29T06:32:51.858Z,98089.52
2019-05-29T06:35:20.304Z,98092.02
2019-05-29T06:37:48.683Z,98092.88
2019-05-29T06:40:26.065Z,98101.93
2019-05-29T06:42:54.358Z,98100.45
2019-05-29T06:45:25.851Z,98109.25
2019-05-29T06:47:54.570Z,98104.15
2019-05-29T06:50:22.944Z,98106.62
2019-05-29T06:52:51.619Z,98109.58
2019-05-29T06:55:20.016Z,98109.69
2019-05-29T06:57:48.396Z,98112.95
2019-05-29T07:00:33.998Z,98114.12
2019-05-29T07:02:46.969Z,98114.12
2019-05-29T07:05:15.395Z,98112.15
2019-05-29T07:07:44.484Z,98111.02
2019-05-29T07:10:13.665Z,98115.85
2019-05-29T07:12:42.449Z,98123.61
2019-05-29T07:15:11.969Z,98128.83
2019-05-29T07:17:40.650Z,98124.79
2019-05-29T07:20:09.800Z,98133.85
2019-05-29T07:22:38.916Z,98132.88
2019-05-29T07:25:07.871Z,98138.34
2019-05-29T07:27:36.860Z,98137.19
2019-05-29T07:30:06.989Z,98134.70
2019-05-29T07:32:35.278Z,98140.91
2019-05-29T07:35:04.736Z,98146.72
2019-05-29T07:37:33.687Z,98152.14
2019-05-29T07:40:02.055Z,98152.40
2019-05-29T07:42:30.427Z,98153.10
2019-05-29T07:44:58.747Z,98149.82
2019-05-29T07:47:27.124Z,98157.30
2019-05-29T07:49:55.760Z,98161.36
2019-05-29T07:52:24.447Z,98159.22
2019-05-29T07:54:52.837Z,98165.40
2019-05-29T07:57:21.522Z,98166.53
2019-05-29T07:59:50.211Z,98167.72
2019-05-29T08:02:18.505Z,98170.39
2019-05-29T08:04:47.289Z,98167.48
2019-05-29T08:07:15.628Z,98172.80
2019-05-29T08:09:43.927Z,98174.63
2019-05-29T08:12:13.197Z,98169.92
2019-05-29T08:14:41.858Z,98170.38
2019-05-29T08:17:10.625Z,98182.94
2019-05-29T08:19:53.540Z,98175.15
2019-05-29T08:22:09.038Z,98184.18
2019-05-29T08:24:37.718Z,98188.36
2019-05-29T08:27:06.114Z,98182.88
2019-05-29T08:29:34.413Z,98196.20
2019-05-29T08:32:02.818Z,98181.61
2019-05-29T08:34:31.111Z,98183.77
2019-05-29T08:37:06.653Z,98189.56
2019-05-29T08:39:36.040Z,98187.22
2019-05-29T08:42:21.201Z,98194.14
2019-05-29T08:44:29.961Z,98200.50
2019-05-29T08:47:09.684Z,98199.97
2019-05-29T08:49:28.387Z,98201.36
2019-05-29T08:52:10.542Z,98208.09
2019-05-29T08:54:27.105Z,98206.89
2019-05-29T08:56:55.475Z,98203.20
2019-05-29T08:59:23.777Z,98210.70
2019-05-29T09:01:53.790Z,98207.86
2019-05-29T09:04:22.154Z,98203.61
2019-05-29T09:06:51.187Z,98217.34
2019-05-29T09:09:19.564Z,98213.29
2019-05-29T09:11:49.880Z,98219.36
2019-05-29T09:14:18.412Z,98217.21
2019-05-29T09:16:46.739Z,98215.99
2019-05-29T09:19:16.244Z,98216.11
2019-05-29T09:21:44.819Z,98226.84
2019-05-29T09:24:14.717Z,98222.58
2019-05-29T09:26:46.422Z,98226.61
2019-05-29T09:29:16.764Z,98228.71
2019-05-29T09:31:43.813Z,98231.28
2019-05-29T09:34:12.135Z,98230.45
2019-05-29T09:36:40.478Z,98231.98
2019-05-29T09:39:09.402Z,98235.23
2019-05-29T09:41:37.894Z,98241.89
2019-05-29T09:44:06.819Z,98239.08
2019-05-29T09:46:35.224Z,98238.20
2019-05-29T09:49:03.598Z,98239.02
2019-05-29T09:51:31.914Z,98241.89
2019-05-29T09:54:01.427Z,98244.91
2019-05-29T09:56:30.598Z,98244.22
2019-05-29T09:59:00.381Z,98241.53
2019-05-29T10:01:29.815Z,98243.44
2019-05-29T10:04:00.040Z,98246.67
2019-05-29T10:06:28.914Z,98245.11
2019-05-29T10:08:58.029Z,98246.05
2019-05-29T10:11:26.718Z,98247.70
2019-05-29T10:13:56.519Z,98261.38
2019-05-29T10:16:25.205Z,98259.80
2019-05-29T10:18:54.270Z,98255.78
2019-05-29T10:21:38.630Z,98256.59
2019-05-29T10:23:54.758Z,98259.16
2019-05-29T10:26:23.776Z,98255.75
2019-05-29T10:31:02.892Z,98267.58
2019-05-29T10:31:22.457Z,98263.37
2019-05-29T10:33:52.327Z,98264.79
2019-05-29T10:36:21.414Z,98269.27
2019-05-29T10:38:50.751Z,98266.48
2019-05-29T10:41:19.454Z,98271.42
2019-05-29T10:43:49.076Z,98272.41
2019-05-29T10:46:17.465Z,98279.06
2019-05-29T10:48:49.375Z,98280.52
2019-05-29T10:51:16.054Z,98280.48
2019-05-29T10:53:44.353Z,98281.79
2019-05-29T10:56:12.689Z,98282.33
2019-05-29T10:58:49.686Z,98282.95
2019-05-29T11:01:11.782Z,98284.17
2019-05-29T11:03:40.179Z,98278.89
2019-05-29T11:06:08.492Z,98284.11
2019-05-29T11:08:36.795Z,98286.77
2019-05-29T11:11:05.132Z,98285.37
2019-05-29T11:13:33.445Z,98288.00
2019-05-29T11:16:01.739Z,98289.94
2019-05-29T11:18:30.126Z,98294.68
2019-05-29T11:20:58.800Z,98293.84
2019-05-29T11:23:27.338Z,98296.23
2019-05-29T11:25:56.052Z,98294.66
2019-05-29T11:28:24.663Z,98302.43
2019-05-29T11:30:53.727Z,98306.38
2019-05-29T11:33:23.012Z,98305.17
2019-05-29T11:36:06.361Z,98298.23
2019-05-29T11:38:22.596Z,98303.45
2019-05-29T11:41:05.334Z,98300.30
2019-05-29T11:43:21.183Z,98305.72
2019-05-29T11:45:51.107Z,98302.06
2019-05-29T11:48:19.591Z,98304.68
2019-05-29T11:50:47.891Z,98306.98
2019-05-29T11:53:16.219Z,98310.27
2019-05-29T11:55:44.527Z,98312.23
2019-05-29T11:58:30.028Z,98308.66
2019-05-29T12:00:42.875Z,98315.27
2019-05-29T12:03:11.641Z,98324.45
2019-05-29T12:05:42.157Z,98322.75
2019-05-29T12:08:10.488Z,98335.29
2019-05-29T12:10:38.811Z,98336.95
2019-05-29T12:13:07.150Z,98336.61
2019-05-29T12:15:35.579Z,98348.47
2019-05-29T12:18:21.849Z,98346.93
2019-05-29T12:20:34.247Z,98352.05
2019-05-29T12:23:25.764Z,98348.20
2019-05-29T12:25:32.923Z,98356.05
2019-05-29T12:28:01.422Z,98348.47
2019-05-29T12:30:30.281Z,98355.71
2019-05-29T12:32:59.221Z,98353.42
2019-05-29T12:35:27.625Z,98353.42
2019-05-29T12:37:57.287Z,98362.05
2019-05-29T12:40:26.108Z,98363.73
2019-05-29T12:42:55.649Z,98365.17
2019-05-29T12:45:24.642Z,98364.91
2019-05-29T12:47:54.224Z,98367.78
2019-05-29T12:50:23.067Z,98361.21
2019-05-29T12:52:51.401Z,98370.73
2019-05-29T12:55:20.147Z,98367.36
2019-05-29T12:57:48.485Z,98379.22
2019-05-29T13:00:19.701Z,98370.82
2019-05-29T13:02:47.986Z,98374.95
2019-05-29T13:05:20.541Z,98371.98
2019-05-29T13:07:46.768Z,98372.38
2019-05-29T13:10:30.154Z,98376.74
2019-05-29T13:12:46.606Z,98373.98
2019-05-29T13:15:15.931Z,98377.48
2019-05-29T13:17:44.588Z,98381.61
2019-05-29T13:20:21.674Z,98388.98
2019-05-29T13:22:44.669Z,98396.63
2019-05-29T13:25:14.379Z,98392.67
2019-05-29T13:27:42.681Z,98392.14
2019-05-29T13:30:13.520Z,98389.41
2019-05-29T13:32:42.245Z,98389.09
2019-05-29T13:35:11.756Z,98392.08
2019-05-29T13:37:40.447Z,98397.98
2019-05-29T13:40:09.190Z,98398.66
2019-05-29T13:42:37.591Z,98398.11
2019-05-29T13:45:16.835Z,98412.35
2019-05-29T13:47:38.056Z,98410.66
2019-05-29T13:50:12.287Z,98415.61
2019-05-29T13:52:39.887Z,98418.78
2019-05-29T13:55:09.093Z,98422.03
2019-05-29T13:57:39.875Z,98417.17
2019-05-29T14:00:30.291Z,98418.28
2019-05-29T14:02:41.859Z,98425.55
2019-05-29T14:05:11.296Z,98429.83
2019-05-29T14:07:39.587Z,98431.78
2019-05-29T14:10:09.629Z,98433.07
2019-05-29T14:12:38.530Z,98434.38
2019-05-29T14:15:12.161Z,98434.19
2019-05-29T14:17:40.865Z,98440.58
2019-05-29T14:20:11.301Z,98445.14
2019-05-29T14:22:39.618Z,98447.84
2019-05-29T14:25:11.670Z,98447.03
2019-05-29T14:27:40.604Z,98452.39
2019-05-29T14:30:10.868Z,98454.63
2019-05-29T14:32:39.521Z,98449.58
2019-05-29T14:35:09.512Z,98458.12
2019-05-29T14:37:38.984Z,98448.97
2019-05-29T14:40:08.113Z,98460.89
2019-05-29T14:42:37.432Z,98463.69
2019-05-29T14:45:10.389Z,98462.33
2019-05-29T14:47:39.001Z,98470.61
2019-05-29T14:50:08.801Z,98483.42
2019-05-29T14:52:37.252Z,98472.69
2019-05-29T14:55:06.810Z,98474.02
2019-05-29T14:57:35.145Z,98480.64
2019-05-29T15:00:18.878Z,98478.97
2019-05-29T15:02:38.687Z,98480.52
2019-05-29T15:05:09.761Z,98481.12
2019-05-29T15:07:38.868Z,98478.94
2019-05-29T15:10:21.373Z,98481.95
2019-05-29T15:12:39.617Z,98488.45
2019-05-29T15:15:13.536Z,98477.27
2019-05-29T15:17:44.644Z,98489.03
2019-05-29T15:20:17.090Z,98494.94
2019-05-29T15:22:45.528Z,98487.53
2019-05-29T15:25:23.727Z,98491.61
2019-05-29T15:27:45.590Z,98491.75
2019-05-29T15:30:22.082Z,98494.57
2019-05-29T15:32:44.921Z,98498.52
2019-05-29T15:35:16.629Z,98503.22
2019-05-29T15:37:44.569Z,98509.04
2019-05-29T15:40:14.771Z,98498.34
2019-05-29T15:42:44.132Z,98502.83
2019-05-29T15:45:14.129Z,98509.01
2019-05-29T15:47:42.933Z,98509.50
2019-05-29T15:50:13.675Z,98513.75
2019-05-29T15:52:42.561Z,98513.88
2019-05-29T15:55:27.025Z,98513.16
2019-05-29T15:57:42.704Z,98515.29
2019-05-29T16:00:13.724Z,98516.88
2019-05-29T16:02:42.556Z,98520.35
2019-05-29T16:05:12.957Z,98521.27
2019-05-29T16:07:41.652Z,98527.61
2019-05-29T16:10:14.671Z,98529.75
2019-05-29T16:12:41.595Z,98533.27
2019-05-29T16:15:11.296Z,98537.45
2019-05-29T16:17:40.042Z,98541.83
2019-05-29T16:20:10.533Z,98548.62
2019-05-29T16:22:39.020Z,98551.30
2019-05-29T16:25:08.453Z,98551.48
2019-05-29T16:27:37.120Z,98556.18
2019-05-29T16:30:08.555Z,98556.22
2019-05-29T16:32:36.954Z,98561.32
2019-05-29T16:35:07.167Z,98565.55
2019-05-29T16:37:35.856Z,98572.94
2019-05-29T16:40:14.202Z,98574.92
2019-05-29T16:42:42.729Z,98571.44
2019-05-29T16:45:12.269Z,98578.27
2019-05-29T16:47:41.064Z,98573.65
2019-05-29T16:50:10.456Z,98576.92
2019-05-29T16:52:39.271Z,98576.75
2019-05-29T16:55:08.346Z,98573.66
2019-05-29T16:57:36.737Z,98583.53
2019-05-29T17:00:08.790Z,98588.33
2019-05-29T17:02:37.917Z,98583.57
2019-05-29T17:05:07.153Z,98594.01
2019-05-29T17:07:35.499Z,98589.30
2019-05-29T17:10:07.865Z,98594.53
2019-05-29T17:12:36.180Z,98592.13
2019-05-29T17:15:12.900Z,98597.28
2019-05-29T17:17:41.619Z,98598.23
2019-05-29T17:20:10.638Z,98610.86
2019-05-29T17:22:39.038Z,98608.30
2019-05-29T17:25:07.975Z,98614.86
2019-05-29T17:27:36.682Z,98621.83
2019-05-29T17:30:07.488Z,98625.28
2019-05-29T17:32:36.197Z,98631.04
2019-05-29T17:35:08.913Z,98630.17
2019-05-29T17:37:37.942Z,98636.95
2019-05-29T17:40:08.053Z,98636.22
2019-05-29T17:42:36.496Z,98644.00
2019-05-29T17:45:08.353Z,98651.46
2019-05-29T17:47:37.088Z,98652.41
2019-05-29T17:50:07.260Z,98655.30
2019-05-29T17:52:35.845Z,98661.77
2019-05-29T17:55:06.188Z,98655.53
2019-05-29T17:57:34.600Z,98671.98
2019-05-29T18:00:04.825Z,98664.36
2019-05-29T18:02:33.154Z,98671.42
2019-05-29T18:05:01.480Z,98676.53
2019-05-29T18:07:30.195Z,98681.73
2019-05-29T18:09:58.508Z,98678.92
2019-05-29T18:12:27.186Z,98684.77
2019-05-29T18:14:56.111Z,98689.59
2019-05-29T18:17:25.485Z,98694.03
2019-05-29T18:19:54.018Z,98697.69
2019-05-29T18:22:23.603Z,98697.27
2019-05-29T18:24:52.363Z,98700.13
2019-05-29T18:27:21.817Z,98703.20
2019-05-29T18:29:50.352Z,98705.52
2019-05-29T18:32:18.652Z,98707.63
2019-05-29T18:34:47.136Z,98713.59
2019-05-29T18:37:15.486Z,98711.91
2019-05-29T18:39:44.216Z,98716.64
2019-05-29T18:42:13.214Z,98723.44
2019-05-29T18:44:41.645Z,98726.09
2019-05-29T18:47:10.027Z,98728.92
2019-05-29T18:49:38.859Z,98734.16
2019-05-29T18:52:07.476Z,98743.53
2019-05-29T18:54:35.961Z,98733.14
2019-05-29T18:57:14.997Z,98733.65
2019-05-29T18:59:34.827Z,98740.36
2019-05-29T19:02:03.155Z,98751.72
2019-05-29T19:04:32.032Z,98743.03
2019-05-29T19:07:00.882Z,98745.76
2019-05-29T19:09:29.807Z,98745.38
2019-05-29T19:11:58.415Z,98750.09
2019-05-29T19:14:27.883Z,98755.25
2019-05-29T19:16:56.712Z,98756.05
2019-05-29T19:19:26.155Z,98760.35
2019-05-29T19:21:54.617Z,98765.80
2019-05-29T19:24:22.927Z,98768.61
2019-05-29T19:26:51.564Z,98771.65
2019-05-29T19:29:19.879Z,98764.88
2019-05-29T19:31:49.265Z,98771.56
2019-05-29T19:34:18.517Z,98775.63
2019-05-29T19:36:47.733Z,98777.14
2019-05-29T19:39:16.131Z,98779.61
2019-05-29T19:41:44.914Z,98784.98
2019-05-29T19:44:13.829Z,98788.63
2019-05-29T19:46:53.551Z,98792.25
2019-05-29T19:49:12.559Z,98796.80
2019-05-29T19:51:40.863Z,98805.33
2019-05-29T19:54:09.606Z,98803.41
2019-05-29T19:56:38.301Z,98810.28
2019-05-29T19:59:06.655Z,98805.59
2019-05-29T20:01:39.004Z,98806.13
2019-05-29T20:04:05.519Z,98808.06
2019-05-29T20:06:35.351Z,98808.26
2019-05-29T20:09:06.363Z,98807.45
2019-05-29T20:11:35.608Z,98812.43
2019-05-29T20:14:07.495Z,98817.25
2019-05-29T20:16:34.412Z,98824.36
2019-05-29T20:19:02.723Z,98821.05
2019-05-29T20:21:32.645Z,98824.59
2019-05-29T20:24:01.130Z,98828.19
2019-05-29T20:26:30.678Z,98823.33
2019-05-29T20:28:59.436Z,98833.50
2019-05-29T20:31:28.730Z,98831.31
2019-05-29T20:33:57.061Z,98831.36
2019-05-29T20:36:25.365Z,98835.88
2019-05-29T20:38:53.701Z,98837.83
2019-05-29T20:41:22.389Z,98835.87
2019-05-29T20:43:50.713Z,98846.88
2019-05-29T20:46:19.368Z,98835.58
2019-05-29T20:48:47.767Z,98838.41
2019-05-29T20:51:16.133Z,98838.56
2019-05-29T20:53:44.455Z,98817.37
2019-05-29T20:56:13.172Z,98840.89
2019-05-29T20:58:42.044Z,98847.53
2019-05-29T21:01:10.492Z,98842.59
2019-05-29T21:03:40.805Z,98845.85
2019-05-29T21:06:09.193Z,98846.53
2019-05-29T21:08:38.741Z,98848.95
2019-05-29T21:11:07.657Z,98846.91
2019-05-29T21:13:37.346Z,98840.53
2019-05-29T21:16:06.573Z,98840.27
2019-05-29T21:18:35.797Z,98829.41
2019-05-29T21:21:04.410Z,98833.23
2019-05-29T21:23:34.192Z,98834.64
2019-05-29T21:26:02.546Z,98834.80
2019-05-29T21:28:39.879Z,98822.16
2019-05-29T21:31:01.059Z,98834.33
2019-05-29T21:33:29.362Z,98834.19
2019-05-29T21:35:57.772Z,98843.36
2019-05-29T21:38:26.341Z,98844.13
2019-05-29T21:40:54.921Z,98844.64
2019-05-29T21:43:23.574Z,98850.47
2019-05-29T21:45:51.870Z,98855.80
2019-05-29T21:48:20.372Z,98845.92
2019-05-29T21:50:48.676Z,98845.81
2019-05-29T21:53:17.001Z,98846.73
2019-05-29T21:55:45.656Z,98850.29
2019-05-29T21:58:14.691Z,98849.11
2019-05-29T22:00:45.856Z,98847.55
2019-05-29T22:03:14.884Z,98854.56
2019-05-29T22:05:43.180Z,98864.98
2019-05-29T22:08:11.593Z,98863.28
2019-05-29T22:10:39.964Z,98875.45
2019-05-29T22:13:08.366Z,98874.81
2019-05-29T22:15:36.762Z,98876.27
2019-05-29T22:18:05.642Z,98886.39
2019-05-29T22:20:34.033Z,98883.80
2019-05-29T22:23:02.861Z,98883.98
2019-05-29T22:25:34.375Z,98883.36
2019-05-29T22:28:01.765Z,98889.19
2019-05-29T22:30:30.376Z,98885.49
2019-05-29T22:32:59.575Z,98893.41
2019-05-29T22:35:28.035Z,98904.24
2019-05-29T22:37:57.566Z,98902.98
2019-05-29T22:40:26.392Z,98902.38
2019-05-29T22:42:55.606Z,98906.23
2019-05-29T22:45:24.034Z,98908.78
2019-05-29T22:47:53.689Z,98901.67
2019-05-29T22:50:22.315Z,98907.45
2019-05-29T22:52:51.764Z,98902.54
2019-05-29T22:55:20.374Z,98903.73
2019-05-29T22:57:48.683Z,98909.45
2019-05-29T23:00:18.289Z,98913.17
2019-05-29T23:02:46.664Z,98910.97
2019-05-29T23:05:15.127Z,98917.00
2019-05-29T23:07:43.427Z,98926.57
2019-05-29T23:10:12.288Z,98922.63
2019-05-29T23:12:40.708Z,98916.01
2019-05-29T23:15:10.091Z,98919.64
2019-05-29T23:17:38.463Z,98921.58
2019-05-29T23:20:09.589Z,98918.70
2019-05-29T23:22:38.412Z,98923.31
2019-05-29T23:25:08.145Z,98920.93
2019-05-29T23:27:36.646Z,98929.34
2019-05-29T23:30:07.044Z,98928.24
2019-05-29T23:32:35.512Z,98926.92
2019-05-29T23:35:05.965Z,98929.73
2019-05-29T23:37:34.287Z,98928.13
2019-05-29T23:40:03.506Z,98916.91
2019-05-29T23:42:32.364Z,98921.70
2019-05-29T23:45:01.547Z,98920.28
2019-05-29T23:47:30.526Z,98919.16
2019-05-29T23:49:59.731Z,98922.70
2019-05-29T23:52:28.519Z,98919.59
2019-05-29T23:54:57.947Z,98919.03
2019-05-29T23:57:26.419Z,98923.73
